sensor_id;sensor_type;location;lat;lon;timestamp;temperature;humidity
11505;DHT22;5809;53.262;10.408;2022-12-07T00:01:06;2.30;99.90
11505;DHT22;5809;53.262;10.408;2022-12-07T00:06:01;2.30;99.90
11505;DHT22;5809;53.262;10.408;2022-12-07T00:08:29;2.30;99.90
11505;DHT22;5809;53.262;10.408;2022-12-07T00:11:01;2.30;99.90
11505;DHT22;5809;53.262;10.408;2022-12-07T00:13:29;2.30;99.90
11505;DHT22;5809;53.262;10.408;2022-12-07T00:16:00;2.30;99.90
11505;DHT22;5809;53.262;10.408;2022-12-07T00:18:29;2.40;99.90
11505;DHT22;5809;53.262;10.408;2022-12-07T00:20:59;2.40;99.90
11505;DHT22;5809;53.262;10.408;2022-12-07T00:23:27;2.50;99.90
11505;DHT22;5809;53.262;10.408;2022-12-07T00:25:54;2.50;99.90
11505;DHT22;5809;53.262;10.408;2022-12-07T00:28:21;2.60;99.90
11505;DHT22;5809;53.262;10.408;2022-12-07T00:35:44;2.60;99.90
11505;DHT22;5809;53.262;10.408;2022-12-07T00:40:38;2.70;99.90
11505;DHT22;5809;53.262;10.408;2022-12-07T00:45:32;2.80;99.90
11505;DHT22;5809;53.262;10.408;2022-12-07T00:47:59;2.80;99.90
11505;DHT22;5809;53.262;10.408;2022-12-07T00:50:26;2.90;99.90
11505;DHT22;5809;53.262;10.408;2022-12-07T00:52:55;2.90;99.90
11505;DHT22;5809;53.262;10.408;2022-12-07T00:55:21;2.90;99.90
11505;DHT22;5809;53.262;10.408;2022-12-07T01:00:16;2.90;99.90
11505;DHT22;5809;53.262;10.408;2022-12-07T01:02:43;3.00;99.90
11505;DHT22;5809;53.262;10.408;2022-12-07T01:05:10;2.90;99.90
11505;DHT22;5809;53.262;10.408;2022-12-07T01:10:07;3.00;99.90
11505;DHT22;5809;53.262;10.408;2022-12-07T01:15:01;3.00;99.90
11505;DHT22;5809;53.262;10.408;2022-12-07T01:17:28;3.20;99.90
11505;DHT22;5809;53.262;10.408;2022-12-07T01:19:55;2.90;99.90
11505;DHT22;5809;53.262;10.408;2022-12-07T01:27:18;2.90;99.90
11505;DHT22;5809;53.262;10.408;2022-12-07T01:29:45;2.90;99.90
11505;DHT22;5809;53.262;10.408;2022-12-07T01:34:39;2.80;99.90
11505;DHT22;5809;53.262;10.408;2022-12-07T01:37:06;2.80;99.90
11505;DHT22;5809;53.262;10.408;2022-12-07T01:44:30;2.80;99.90
11505;DHT22;5809;53.262;10.408;2022-12-07T01:47:00;2.80;99.90
11505;DHT22;5809;53.262;10.408;2022-12-07T01:49:30;2.80;99.90
11505;DHT22;5809;53.262;10.408;2022-12-07T01:52:03;2.80;99.90
11505;DHT22;5809;53.262;10.408;2022-12-07T01:54:35;2.90;99.90
11505;DHT22;5809;53.262;10.408;2022-12-07T01:57:03;2.90;99.90
11505;DHT22;5809;53.262;10.408;2022-12-07T01:59:33;2.90;99.90
11505;DHT22;5809;53.262;10.408;2022-12-07T02:02:02;3.00;99.90
11505;DHT22;5809;53.262;10.408;2022-12-07T02:04:31;3.00;99.90
11505;DHT22;5809;53.262;10.408;2022-12-07T02:09:25;3.10;99.90
11505;DHT22;5809;53.262;10.408;2022-12-07T02:11:53;3.10;99.90
11505;DHT22;5809;53.262;10.408;2022-12-07T02:14:21;3.10;99.90
11505;DHT22;5809;53.262;10.408;2022-12-07T02:16:59;3.20;99.90
11505;DHT22;5809;53.262;10.408;2022-12-07T02:19:51;3.10;99.90
11505;DHT22;5809;53.262;10.408;2022-12-07T02:22:48;3.20;99.90
11505;DHT22;5809;53.262;10.408;2022-12-07T02:25:25;3.20;99.90
11505;DHT22;5809;53.262;10.408;2022-12-07T02:27:58;3.20;99.90
11505;DHT22;5809;53.262;10.408;2022-12-07T02:30:32;3.20;99.90
11505;DHT22;5809;53.262;10.408;2022-12-07T02:33:03;3.10;99.90
11505;DHT22;5809;53.262;10.408;2022-12-07T02:35:35;3.10;99.90
11505;DHT22;5809;53.262;10.408;2022-12-07T02:38:13;3.10;99.90
11505;DHT22;5809;53.262;10.408;2022-12-07T02:40:46;3.10;99.90
11505;DHT22;5809;53.262;10.408;2022-12-07T02:43:17;3.10;99.90
11505;DHT22;5809;53.262;10.408;2022-12-07T02:45:46;3.10;99.90
11505;DHT22;5809;53.262;10.408;2022-12-07T02:48:16;3.20;99.90
11505;DHT22;5809;53.262;10.408;2022-12-07T02:50:45;3.20;99.90
11505;DHT22;5809;53.262;10.408;2022-12-07T02:53:31;3.20;99.90
11505;DHT22;5809;53.262;10.408;2022-12-07T02:56:00;3.10;99.90
11505;DHT22;5809;53.262;10.408;2022-12-07T02:58:40;3.10;99.90
11505;DHT22;5809;53.262;10.408;2022-12-07T03:01:20;3.10;99.90
11505;DHT22;5809;53.262;10.408;2022-12-07T03:03:58;3.00;99.90
11505;DHT22;5809;53.262;10.408;2022-12-07T03:06:29;3.00;99.90
11505;DHT22;5809;53.262;10.408;2022-12-07T03:09:07;2.80;99.90
11505;DHT22;5809;53.262;10.408;2022-12-07T03:11:44;2.80;99.90
11505;DHT22;5809;53.262;10.408;2022-12-07T03:14:15;2.80;99.90
11505;DHT22;5809;53.262;10.408;2022-12-07T03:16:49;2.80;99.90
11505;DHT22;5809;53.262;10.408;2022-12-07T03:19:20;2.80;99.90
11505;DHT22;5809;53.262;10.408;2022-12-07T03:21:55;2.80;99.90
11505;DHT22;5809;53.262;10.408;2022-12-07T03:24:27;2.70;99.90
11505;DHT22;5809;53.262;10.408;2022-12-07T03:26:59;2.80;99.90
11505;DHT22;5809;53.262;10.408;2022-12-07T03:29:30;2.80;99.90
11505;DHT22;5809;53.262;10.408;2022-12-07T03:32:03;2.70;99.90
11505;DHT22;5809;53.262;10.408;2022-12-07T03:34:34;2.70;99.90
11505;DHT22;5809;53.262;10.408;2022-12-07T03:37:04;2.70;99.90
11505;DHT22;5809;53.262;10.408;2022-12-07T03:39:36;2.70;99.90
11505;DHT22;5809;53.262;10.408;2022-12-07T03:42:05;2.70;99.90
11505;DHT22;5809;53.262;10.408;2022-12-07T03:44:34;2.70;99.90
11505;DHT22;5809;53.262;10.408;2022-12-07T03:47:05;2.60;99.90
11505;DHT22;5809;53.262;10.408;2022-12-07T03:49:39;2.60;99.90
11505;DHT22;5809;53.262;10.408;2022-12-07T03:52:14;2.60;99.90
11505;DHT22;5809;53.262;10.408;2022-12-07T03:54:47;2.50;99.90
11505;DHT22;5809;53.262;10.408;2022-12-07T03:57:17;2.40;99.90
11505;DHT22;5809;53.262;10.408;2022-12-07T03:59:44;2.40;99.90
11505;DHT22;5809;53.262;10.408;2022-12-07T04:02:13;2.30;99.90
11505;DHT22;5809;53.262;10.408;2022-12-07T04:04:42;2.30;99.90
11505;DHT22;5809;53.262;10.408;2022-12-07T04:07:09;2.30;99.90
11505;DHT22;5809;53.262;10.408;2022-12-07T04:09:38;2.20;99.90
11505;DHT22;5809;53.262;10.408;2022-12-07T04:12:06;2.20;99.90
11505;DHT22;5809;53.262;10.408;2022-12-07T04:19:30;2.10;99.90
11505;DHT22;5809;53.262;10.408;2022-12-07T04:21:59;3.20;99.90
11505;DHT22;5809;53.262;10.408;2022-12-07T04:24:26;2.10;99.90
11505;DHT22;5809;53.262;10.408;2022-12-07T04:26:53;2.10;99.90
11505;DHT22;5809;53.262;10.408;2022-12-07T04:29:20;2.10;99.90
11505;DHT22;5809;53.262;10.408;2022-12-07T04:34:15;2.00;99.90
11505;DHT22;5809;53.262;10.408;2022-12-07T04:36:44;2.00;99.90
11505;DHT22;5809;53.262;10.408;2022-12-07T04:39:19;1.90;99.90
11505;DHT22;5809;53.262;10.408;2022-12-07T04:41:46;1.90;99.90
11505;DHT22;5809;53.262;10.408;2022-12-07T04:44:14;1.80;99.90
11505;DHT22;5809;53.262;10.408;2022-12-07T04:46:41;1.80;99.90
11505;DHT22;5809;53.262;10.408;2022-12-07T04:49:09;1.80;99.90
11505;DHT22;5809;53.262;10.408;2022-12-07T04:54:05;1.70;99.90
11505;DHT22;5809;53.262;10.408;2022-12-07T05:01:27;1.60;99.90
11505;DHT22;5809;53.262;10.408;2022-12-07T05:08:49;1.50;99.90
11505;DHT22;5809;53.262;10.408;2022-12-07T05:11:17;1.40;99.90
11505;DHT22;5809;53.262;10.408;2022-12-07T05:13:58;1.50;99.90
11505;DHT22;5809;53.262;10.408;2022-12-07T05:16:25;1.40;99.90
11505;DHT22;5809;53.262;10.408;2022-12-07T05:26:14;1.30;99.90
11505;DHT22;5809;53.262;10.408;2022-12-07T05:28:43;1.30;99.90
11505;DHT22;5809;53.262;10.408;2022-12-07T05:36:04;1.30;99.90
11505;DHT22;5809;53.262;10.408;2022-12-07T05:38:33;1.30;99.90
11505;DHT22;5809;53.262;10.408;2022-12-07T05:41:01;1.20;99.90
11505;DHT22;5809;53.262;10.408;2022-12-07T05:43:28;1.20;99.90
11505;DHT22;5809;53.262;10.408;2022-12-07T05:45:55;1.20;99.90
11505;DHT22;5809;53.262;10.408;2022-12-07T05:48:22;1.00;99.90
11505;DHT22;5809;53.262;10.408;2022-12-07T05:50:50;1.10;99.90
11505;DHT22;5809;53.262;10.408;2022-12-07T06:00:58;1.10;99.90
11505;DHT22;5809;53.262;10.408;2022-12-07T06:10:47;1.10;99.90
11505;DHT22;5809;53.262;10.408;2022-12-07T06:13:36;1.00;99.90
11505;DHT22;5809;53.262;10.408;2022-12-07T06:16:04;1.00;99.90
11505;DHT22;5809;53.262;10.408;2022-12-07T06:18:31;1.00;99.90
11505;DHT22;5809;53.262;10.408;2022-12-07T06:25:52;0.90;99.90
11505;DHT22;5809;53.262;10.408;2022-12-07T06:30:46;0.90;99.90
11505;DHT22;5809;53.262;10.408;2022-12-07T06:33:14;0.90;99.90
11505;DHT22;5809;53.262;10.408;2022-12-07T06:35:41;0.90;99.90
11505;DHT22;5809;53.262;10.408;2022-12-07T06:38:08;0.90;99.90
11505;DHT22;5809;53.262;10.408;2022-12-07T06:43:02;0.90;99.90
11505;DHT22;5809;53.262;10.408;2022-12-07T06:50:25;0.90;99.90
11505;DHT22;5809;53.262;10.408;2022-12-07T06:57:46;0.90;99.90
11505;DHT22;5809;53.262;10.408;2022-12-07T07:00:14;0.90;99.90
11505;DHT22;5809;53.262;10.408;2022-12-07T07:05:08;0.90;99.90
11505;DHT22;5809;53.262;10.408;2022-12-07T07:07:37;1.00;99.90
11505;DHT22;5809;53.262;10.408;2022-12-07T07:10:05;1.00;99.90
11505;DHT22;5809;53.262;10.408;2022-12-07T07:14:59;1.00;99.90
11505;DHT22;5809;53.262;10.408;2022-12-07T07:19:53;1.00;99.90
11505;DHT22;5809;53.262;10.408;2022-12-07T07:24:49;1.10;99.90
11505;DHT22;5809;53.262;10.408;2022-12-07T07:29:43;1.20;99.90
11505;DHT22;5809;53.262;10.408;2022-12-07T07:34:37;1.20;99.90
11505;DHT22;5809;53.262;10.408;2022-12-07T07:37:04;1.30;99.90
11505;DHT22;5809;53.262;10.408;2022-12-07T07:39:31;1.30;99.90
11505;DHT22;5809;53.262;10.408;2022-12-07T07:41:59;1.30;99.90
11505;DHT22;5809;53.262;10.408;2022-12-07T07:44:26;1.30;99.90
11505;DHT22;5809;53.262;10.408;2022-12-07T07:49:20;1.40;99.90
11505;DHT22;5809;53.262;10.408;2022-12-07T07:54:15;1.40;99.90
11505;DHT22;5809;53.262;10.408;2022-12-07T07:59:10;1.60;99.90
11505;DHT22;5809;53.262;10.408;2022-12-07T08:01:37;1.60;99.90
11505;DHT22;5809;53.262;10.408;2022-12-07T08:04:04;1.70;99.90
11505;DHT22;5809;53.262;10.408;2022-12-07T08:06:31;1.70;99.90
11505;DHT22;5809;53.262;10.408;2022-12-07T08:08:58;1.70;99.90
11505;DHT22;5809;53.262;10.408;2022-12-07T08:13:52;1.70;99.90
11505;DHT22;5809;53.262;10.408;2022-12-07T08:16:20;1.80;99.90
11505;DHT22;5809;53.262;10.408;2022-12-07T08:18:47;1.70;99.90
11505;DHT22;5809;53.262;10.408;2022-12-07T08:21:15;1.80;99.90
11505;DHT22;5809;53.262;10.408;2022-12-07T08:28:37;1.80;99.90
11505;DHT22;5809;53.262;10.408;2022-12-07T08:33:35;1.90;99.90
11505;DHT22;5809;53.262;10.408;2022-12-07T08:36:04;1.90;99.90
11505;DHT22;5809;53.262;10.408;2022-12-07T08:38:31;1.90;99.90
11505;DHT22;5809;53.262;10.408;2022-12-07T08:40:59;2.00;99.90
11505;DHT22;5809;53.262;10.408;2022-12-07T08:46:00;2.00;99.90
11505;DHT22;5809;53.262;10.408;2022-12-07T08:48:31;2.00;99.90
11505;DHT22;5809;53.262;10.408;2022-12-07T08:51:01;2.10;99.90
11505;DHT22;5809;53.262;10.408;2022-12-07T08:53:28;2.10;99.90
11505;DHT22;5809;53.262;10.408;2022-12-07T08:55:56;2.10;99.90
11505;DHT22;5809;53.262;10.408;2022-12-07T09:00:51;2.30;99.90
11505;DHT22;5809;53.262;10.408;2022-12-07T09:03:17;2.40;99.90
11505;DHT22;5809;53.262;10.408;2022-12-07T09:05:44;2.50;99.90
11505;DHT22;5809;53.262;10.408;2022-12-07T09:08:13;2.60;99.90
11505;DHT22;5809;53.262;10.408;2022-12-07T09:13:07;2.80;99.90
11505;DHT22;5809;53.262;10.408;2022-12-07T09:25:24;3.20;99.90
11505;DHT22;5809;53.262;10.408;2022-12-07T09:27:55;3.20;99.90
11505;DHT22;5809;53.262;10.408;2022-12-07T09:30:23;3.20;99.90
11505;DHT22;5809;53.262;10.408;2022-12-07T09:35:17;3.20;99.90
11505;DHT22;5809;53.262;10.408;2022-12-07T09:37:44;3.20;99.90
11505;DHT22;5809;53.262;10.408;2022-12-07T09:40:12;3.20;99.90
11505;DHT22;5809;53.262;10.408;2022-12-07T09:42:43;3.20;99.90
11505;DHT22;5809;53.262;10.408;2022-12-07T09:45:14;3.20;99.90
11505;DHT22;5809;53.262;10.408;2022-12-07T09:47:42;3.30;99.90
11505;DHT22;5809;53.262;10.408;2022-12-07T09:50:14;3.30;99.90
11505;DHT22;5809;53.262;10.408;2022-12-07T09:52:43;3.40;99.90
11505;DHT22;5809;53.262;10.408;2022-12-07T09:55:15;3.40;99.90
11505;DHT22;5809;53.262;10.408;2022-12-07T09:57:43;3.40;99.90
11505;DHT22;5809;53.262;10.408;2022-12-07T10:00:13;3.50;99.90
11505;DHT22;5809;53.262;10.408;2022-12-07T10:02:43;3.40;99.90
11505;DHT22;5809;53.262;10.408;2022-12-07T10:05:14;3.40;99.90
11505;DHT22;5809;53.262;10.408;2022-12-07T10:07:42;3.50;99.90
11505;DHT22;5809;53.262;10.408;2022-12-07T10:10:15;3.60;99.90
11505;DHT22;5809;53.262;10.408;2022-12-07T10:13:11;3.70;99.90
11505;DHT22;5809;53.262;10.408;2022-12-07T10:15:44;3.70;99.90
11505;DHT22;5809;53.262;10.408;2022-12-07T10:18:19;3.70;99.90
11505;DHT22;5809;53.262;10.408;2022-12-07T10:20:47;3.70;99.90
11505;DHT22;5809;53.262;10.408;2022-12-07T10:23:16;3.70;99.90
11505;DHT22;5809;53.262;10.408;2022-12-07T10:25:44;3.70;99.90
11505;DHT22;5809;53.262;10.408;2022-12-07T10:28:16;3.80;99.90
11505;DHT22;5809;53.262;10.408;2022-12-07T10:30:52;3.70;99.90
11505;DHT22;5809;53.262;10.408;2022-12-07T10:33:34;3.70;99.90
11505;DHT22;5809;53.262;10.408;2022-12-07T10:36:17;3.70;99.90
11505;DHT22;5809;53.262;10.408;2022-12-07T10:38:46;3.70;99.90
11505;DHT22;5809;53.262;10.408;2022-12-07T10:41:13;3.70;95.60
11505;DHT22;5809;53.262;10.408;2022-12-07T10:43:49;3.70;97.00
11505;DHT22;5809;53.262;10.408;2022-12-07T10:46:38;3.80;92.70
11505;DHT22;5809;53.262;10.408;2022-12-07T10:49:25;3.80;93.30
11505;DHT22;5809;53.262;10.408;2022-12-07T10:52:00;3.90;77.50
11505;DHT22;5809;53.262;10.408;2022-12-07T10:54:40;3.90;82.30
11505;DHT22;5809;53.262;10.408;2022-12-07T10:57:22;4.00;58.60
11505;DHT22;5809;53.262;10.408;2022-12-07T11:00:00;4.00;36.70
11505;DHT22;5809;53.262;10.408;2022-12-07T11:05:42;4.10;53.00
11505;DHT22;5809;53.262;10.408;2022-12-07T11:08:18;4.00;35.20
11505;DHT22;5809;53.262;10.408;2022-12-07T11:10:52;4.00;44.30
11505;DHT22;5809;53.262;10.408;2022-12-07T11:13:29;4.00;36.50
11505;DHT22;5809;53.262;10.408;2022-12-07T11:16:11;4.00;42.50
11505;DHT22;5809;53.262;10.408;2022-12-07T11:18:47;4.00;59.00
11505;DHT22;5809;53.262;10.408;2022-12-07T11:21:21;4.00;52.30
11505;DHT22;5809;53.262;10.408;2022-12-07T11:23:56;4.00;48.90
11505;DHT22;5809;53.262;10.408;2022-12-07T11:26:40;4.00;48.10
11505;DHT22;5809;53.262;10.408;2022-12-07T11:29:36;4.00;52.10
11505;DHT22;5809;53.262;10.408;2022-12-07T11:32:14;4.10;29.00
11505;DHT22;5809;53.262;10.408;2022-12-07T11:34:53;4.10;38.60
11505;DHT22;5809;53.262;10.408;2022-12-07T11:37:33;4.20;29.50
11505;DHT22;5809;53.262;10.408;2022-12-07T11:40:03;4.40;29.70
11505;DHT22;5809;53.262;10.408;2022-12-07T11:42:36;4.50;27.10
11505;DHT22;5809;53.262;10.408;2022-12-07T11:45:12;4.60;2.60
11505;DHT22;5809;53.262;10.408;2022-12-07T11:47:46;4.50;1.10
11505;DHT22;5809;53.262;10.408;2022-12-07T11:50:27;4.50;15.90
11505;DHT22;5809;53.262;10.408;2022-12-07T11:52:59;4.50;23.60
11505;DHT22;5809;53.262;10.408;2022-12-07T11:55:32;4.50;20.40
11505;DHT22;5809;53.262;10.408;2022-12-07T11:58:14;5.10;31.50
11505;DHT22;5809;53.262;10.408;2022-12-07T12:00:46;4.50;39.60
11505;DHT22;5809;53.262;10.408;2022-12-07T12:03:17;4.60;29.70
11505;DHT22;5809;53.262;10.408;2022-12-07T12:08:17;4.70;28.50
11505;DHT22;5809;53.262;10.408;2022-12-07T12:10:55;4.50;30.90
11505;DHT22;5809;53.262;10.408;2022-12-07T12:13:46;4.50;32.20
11505;DHT22;5809;53.262;10.408;2022-12-07T12:16:28;4.40;50.10
11505;DHT22;5809;53.262;10.408;2022-12-07T12:19:16;4.40;55.30
11505;DHT22;5809;53.262;10.408;2022-12-07T12:21:46;4.30;55.10
11505;DHT22;5809;53.262;10.408;2022-12-07T12:24:18;4.30;68.50
11505;DHT22;5809;53.262;10.408;2022-12-07T12:26:50;4.30;84.40
11505;DHT22;5809;53.262;10.408;2022-12-07T12:29:27;4.30;67.60
11505;DHT22;5809;53.262;10.408;2022-12-07T12:32:13;4.40;62.60
11505;DHT22;5809;53.262;10.408;2022-12-07T12:34:59;4.40;50.20
11505;DHT22;5809;53.262;10.408;2022-12-07T12:37:46;4.60;48.50
11505;DHT22;5809;53.262;10.408;2022-12-07T12:40:40;5.20;28.60
11505;DHT22;5809;53.262;10.408;2022-12-07T12:46:48;5.40;1.00
11505;DHT22;5809;53.262;10.408;2022-12-07T12:49:54;5.60;1.00
11505;DHT22;5809;53.262;10.408;2022-12-07T12:53:12;5.90;1.00
11505;DHT22;5809;53.262;10.408;2022-12-07T12:58:47;5.60;1.00
11505;DHT22;5809;53.262;10.408;2022-12-07T13:04:25;1.10;1.00
11505;DHT22;5809;53.262;10.408;2022-12-07T13:06:55;5.00;1.00
11505;DHT22;5809;53.262;10.408;2022-12-07T13:09:24;5.00;1.00
11505;DHT22;5809;53.262;10.408;2022-12-07T13:12:01;5.50;1.00
11505;DHT22;5809;53.262;10.408;2022-12-07T13:14:54;5.70;1.00
11505;DHT22;5809;53.262;10.408;2022-12-07T13:17:59;5.70;1.00
11505;DHT22;5809;53.262;10.408;2022-12-07T13:20:53;6.20;1.00
11505;DHT22;5809;53.262;10.408;2022-12-07T13:23:32;5.80;1.00
11505;DHT22;5809;53.262;10.408;2022-12-07T13:26:12;5.50;1.00
11505;DHT22;5809;53.262;10.408;2022-12-07T13:28:42;5.10;1.00
11505;DHT22;5809;53.262;10.408;2022-12-07T13:31:23;4.90;1.00
11505;DHT22;5809;53.262;10.408;2022-12-07T13:33:51;4.80;1.00
11505;DHT22;5809;53.262;10.408;2022-12-07T13:36:21;4.80;18.10
11505;DHT22;5809;53.262;10.408;2022-12-07T13:38:52;5.10;24.80
11505;DHT22;5809;53.262;10.408;2022-12-07T13:41:21;5.50;1.00
11505;DHT22;5809;53.262;10.408;2022-12-07T13:43:52;5.90;1.00
11505;DHT22;5809;53.262;10.408;2022-12-07T13:46:25;6.30;1.00
11505;DHT22;5809;53.262;10.408;2022-12-07T13:48:53;6.60;1.00
11505;DHT22;5809;53.262;10.408;2022-12-07T13:51:24;6.50;1.00
11505;DHT22;5809;53.262;10.408;2022-12-07T13:53:54;6.20;1.00
11505;DHT22;5809;53.262;10.408;2022-12-07T13:56:33;5.70;1.00
11505;DHT22;5809;53.262;10.408;2022-12-07T13:59:01;5.20;1.00
11505;DHT22;5809;53.262;10.408;2022-12-07T14:01:30;4.90;1.00
11505;DHT22;5809;53.262;10.408;2022-12-07T14:04:19;4.70;3.00
11505;DHT22;5809;53.262;10.408;2022-12-07T14:09:25;4.90;1.00
11505;DHT22;5809;53.262;10.408;2022-12-07T14:11:53;4.70;1.00
11505;DHT22;5809;53.262;10.408;2022-12-07T14:14:22;4.30;7.60
11505;DHT22;5809;53.262;10.408;2022-12-07T14:17:01;4.00;21.70
11505;DHT22;5809;53.262;10.408;2022-12-07T14:19:44;3.80;45.80
11505;DHT22;5809;53.262;10.408;2022-12-07T14:22:24;3.60;65.70
11505;DHT22;5809;53.262;10.408;2022-12-07T14:24:59;3.40;82.00
11505;DHT22;5809;53.262;10.408;2022-12-07T14:27:31;3.30;93.80
11505;DHT22;5809;53.262;10.408;2022-12-07T14:29:59;3.30;95.60
11505;DHT22;5809;53.262;10.408;2022-12-07T14:32:28;3.20;99.40
11505;DHT22;5809;53.262;10.408;2022-12-07T14:34:58;3.20;99.90
11505;DHT22;5809;53.262;10.408;2022-12-07T14:37:25;4.00;97.90
11505;DHT22;5809;53.262;10.408;2022-12-07T14:39:54;3.00;99.90
11505;DHT22;5809;53.262;10.408;2022-12-07T14:42:23;3.00;99.90
11505;DHT22;5809;53.262;10.408;2022-12-07T14:49:46;2.80;99.90
11505;DHT22;5809;53.262;10.408;2022-12-07T14:52:16;2.80;99.90
11505;DHT22;5809;53.262;10.408;2022-12-07T14:57:12;2.70;99.90
11505;DHT22;5809;53.262;10.408;2022-12-07T14:59:39;2.70;99.90
11505;DHT22;5809;53.262;10.408;2022-12-07T15:02:09;2.70;99.90
11505;DHT22;5809;53.262;10.408;2022-12-07T15:04:37;2.70;99.90
11505;DHT22;5809;53.262;10.408;2022-12-07T15:07:06;6.60;99.90
11505;DHT22;5809;53.262;10.408;2022-12-07T15:09:35;2.60;99.90
11505;DHT22;5809;53.262;10.408;2022-12-07T15:14:31;2.60;99.90
11505;DHT22;5809;53.262;10.408;2022-12-07T15:16:58;2.50;99.90
11505;DHT22;5809;53.262;10.408;2022-12-07T15:21:53;2.40;99.90
11505;DHT22;5809;53.262;10.408;2022-12-07T15:29:17;2.20;99.90
11505;DHT22;5809;53.262;10.408;2022-12-07T15:31:45;2.10;99.90
11505;DHT22;5809;53.262;10.408;2022-12-07T15:34:12;2.10;99.90
11505;DHT22;5809;53.262;10.408;2022-12-07T15:36:39;2.10;99.90
11505;DHT22;5809;53.262;10.408;2022-12-07T15:39:06;2.10;99.90
11505;DHT22;5809;53.262;10.408;2022-12-07T15:41:33;2.00;99.90
11505;DHT22;5809;53.262;10.408;2022-12-07T15:44:01;2.00;99.90
11505;DHT22;5809;53.262;10.408;2022-12-07T15:46:46;2.00;99.90
11505;DHT22;5809;53.262;10.408;2022-12-07T15:49:16;2.00;99.90
11505;DHT22;5809;53.262;10.408;2022-12-07T15:51:44;2.00;99.90
11505;DHT22;5809;53.262;10.408;2022-12-07T15:54:13;2.00;99.90
11505;DHT22;5809;53.262;10.408;2022-12-07T15:59:09;2.00;99.90
11505;DHT22;5809;53.262;10.408;2022-12-07T16:04:05;2.00;99.90
11505;DHT22;5809;53.262;10.408;2022-12-07T16:08:59;2.00;99.90
11505;DHT22;5809;53.262;10.408;2022-12-07T16:13:53;1.90;99.90
11505;DHT22;5809;53.262;10.408;2022-12-07T16:16:21;1.90;99.90
11505;DHT22;5809;53.262;10.408;2022-12-07T16:18:49;1.90;99.90
11505;DHT22;5809;53.262;10.408;2022-12-07T16:21:17;1.80;99.90
11505;DHT22;5809;53.262;10.408;2022-12-07T16:26:13;1.70;99.90
11505;DHT22;5809;53.262;10.408;2022-12-07T16:28:41;1.60;99.90
11505;DHT22;5809;53.262;10.408;2022-12-07T16:31:11;1.50;99.90
11505;DHT22;5809;53.262;10.408;2022-12-07T16:33:39;1.50;99.90
11505;DHT22;5809;53.262;10.408;2022-12-07T16:36:07;1.50;99.90
11505;DHT22;5809;53.262;10.408;2022-12-07T16:38:37;1.40;99.90
11505;DHT22;5809;53.262;10.408;2022-12-07T16:41:04;1.30;99.90
11505;DHT22;5809;53.262;10.408;2022-12-07T16:45:59;1.20;99.90
11505;DHT22;5809;53.262;10.408;2022-12-07T16:50:54;1.10;99.90
11505;DHT22;5809;53.262;10.408;2022-12-07T16:53:23;1.00;99.90
11505;DHT22;5809;53.262;10.408;2022-12-07T16:55:51;1.10;99.90
11505;DHT22;5809;53.262;10.408;2022-12-07T16:58:18;1.00;99.90
11505;DHT22;5809;53.262;10.408;2022-12-07T17:00:46;1.00;99.90
11505;DHT22;5809;53.262;10.408;2022-12-07T17:03:14;1.00;99.90
11505;DHT22;5809;53.262;10.408;2022-12-07T17:05:43;1.00;99.90
11505;DHT22;5809;53.262;10.408;2022-12-07T17:10:39;1.00;99.90
11505;DHT22;5809;53.262;10.408;2022-12-07T17:13:08;0.90;99.90
11505;DHT22;5809;53.262;10.408;2022-12-07T17:16:00;0.90;99.90
11505;DHT22;5809;53.262;10.408;2022-12-07T17:18:29;1.00;99.90
11505;DHT22;5809;53.262;10.408;2022-12-07T17:21:02;1.00;99.90
11505;DHT22;5809;53.262;10.408;2022-12-07T17:23:29;1.10;99.90
11505;DHT22;5809;53.262;10.408;2022-12-07T17:25:56;1.00;99.90
11505;DHT22;5809;53.262;10.408;2022-12-07T17:28:31;1.10;99.90
11505;DHT22;5809;53.262;10.408;2022-12-07T17:33:25;1.00;99.90
11505;DHT22;5809;53.262;10.408;2022-12-07T17:35:52;1.00;99.90
11505;DHT22;5809;53.262;10.408;2022-12-07T17:45:42;1.00;99.90
11505;DHT22;5809;53.262;10.408;2022-12-07T17:53:20;0.90;99.90
11505;DHT22;5809;53.262;10.408;2022-12-07T18:00:43;-0.10;99.90
11505;DHT22;5809;53.262;10.408;2022-12-07T18:05:37;0.80;99.90
11505;DHT22;5809;53.262;10.408;2022-12-07T18:08:05;0.70;99.90
11505;DHT22;5809;53.262;10.408;2022-12-07T18:10:32;0.60;99.90
11505;DHT22;5809;53.262;10.408;2022-12-07T18:12:59;0.60;99.90
11505;DHT22;5809;53.262;10.408;2022-12-07T18:15:45;0.60;99.90
11505;DHT22;5809;53.262;10.408;2022-12-07T18:30:28;0.70;99.90
11505;DHT22;5809;53.262;10.408;2022-12-07T18:32:56;0.60;99.90
11505;DHT22;5809;53.262;10.408;2022-12-07T18:37:50;0.50;99.90
11505;DHT22;5809;53.262;10.408;2022-12-07T18:45:12;0.70;99.90
11505;DHT22;5809;53.262;10.408;2022-12-07T18:50:08;0.70;99.90
11505;DHT22;5809;53.262;10.408;2022-12-07T18:55:03;0.60;99.90
11505;DHT22;5809;53.262;10.408;2022-12-07T19:04:53;0.50;99.90
11505;DHT22;5809;53.262;10.408;2022-12-07T19:07:21;0.50;99.90
11505;DHT22;5809;53.262;10.408;2022-12-07T19:12:15;0.50;99.90
11505;DHT22;5809;53.262;10.408;2022-12-07T19:17:11;0.40;99.90
11505;DHT22;5809;53.262;10.408;2022-12-07T19:19:40;0.40;99.90
11505;DHT22;5809;53.262;10.408;2022-12-07T19:22:11;0.40;99.90
11505;DHT22;5809;53.262;10.408;2022-12-07T19:24:40;0.30;99.90
11505;DHT22;5809;53.262;10.408;2022-12-07T19:27:08;0.30;99.90
11505;DHT22;5809;53.262;10.408;2022-12-07T19:29:35;0.30;99.90
11505;DHT22;5809;53.262;10.408;2022-12-07T19:46:53;0.10;99.90
11505;DHT22;5809;53.262;10.408;2022-12-07T19:49:22;0.10;99.90
11505;DHT22;5809;53.262;10.408;2022-12-07T19:51:51;0.10;99.90
11505;DHT22;5809;53.262;10.408;2022-12-07T19:54:20;0.20;99.90
11505;DHT22;5809;53.262;10.408;2022-12-07T19:56:48;0.20;99.90
11505;DHT22;5809;53.262;10.408;2022-12-07T19:59:19;0.20;99.90
11505;DHT22;5809;53.262;10.408;2022-12-07T20:09:09;0.20;99.90
11505;DHT22;5809;53.262;10.408;2022-12-07T20:11:37;0.20;99.90
11505;DHT22;5809;53.262;10.408;2022-12-07T20:14:23;0.20;99.90
11505;DHT22;5809;53.262;10.408;2022-12-07T20:21:45;0.20;99.90
11505;DHT22;5809;53.262;10.408;2022-12-07T20:24:15;0.20;99.90
11505;DHT22;5809;53.262;10.408;2022-12-07T20:26:43;0.20;99.90
11505;DHT22;5809;53.262;10.408;2022-12-07T20:29:12;0.30;99.90
11505;DHT22;5809;53.262;10.408;2022-12-07T20:31:41;0.30;99.90
11505;DHT22;5809;53.262;10.408;2022-12-07T20:36:36;0.30;99.90
11505;DHT22;5809;53.262;10.408;2022-12-07T20:39:04;0.30;99.90
11505;DHT22;5809;53.262;10.408;2022-12-07T20:41:32;0.30;99.90
11505;DHT22;5809;53.262;10.408;2022-12-07T20:44:17;0.80;99.90
11505;DHT22;5809;53.262;10.408;2022-12-07T20:46:46;0.30;99.90
11505;DHT22;5809;53.262;10.408;2022-12-07T20:51:41;0.30;99.90
11505;DHT22;5809;53.262;10.408;2022-12-07T20:56:36;0.30;99.90
11505;DHT22;5809;53.262;10.408;2022-12-07T20:59:05;0.30;99.90
11505;DHT22;5809;53.262;10.408;2022-12-07T21:01:34;0.40;99.90
11505;DHT22;5809;53.262;10.408;2022-12-07T21:04:03;0.40;99.90
11505;DHT22;5809;53.262;10.408;2022-12-07T21:06:30;0.40;99.90
11505;DHT22;5809;53.262;10.408;2022-12-07T21:11:26;0.40;99.90
11505;DHT22;5809;53.262;10.408;2022-12-07T21:16:22;0.40;99.90
11505;DHT22;5809;53.262;10.408;2022-12-07T21:21:18;0.40;99.90